createdAt,value
2017-10-02T00:01:48.122Z,60.32
2017-10-02T00:04:26.875Z,60.32
2017-10-02T00:07:12.465Z,60.51
2017-10-02T00:09:49.283Z,60.23
2017-10-02T00:12:24.887Z,60.30
2017-10-02T00:17:45.047Z,60.24
2017-10-02T00:20:20.704Z,60.18
2017-10-02T00:22:58.189Z,60.29
2017-10-02T00:28:20.530Z,60.18
2017-10-02T00:30:55.859Z,60.53
2017-10-02T00:33:36.181Z,60.78
2017-10-02T00:36:22.555Z,60.67
2017-10-02T00:39:06.899Z,60.37
2017-10-02T00:41:48.950Z,60.06
2017-10-02T00:44:24.249Z,59.72
2017-10-02T00:47:02.016Z,59.86
2017-10-02T00:49:37.388Z,59.79
2017-10-02T00:52:12.238Z,59.20
2017-10-02T00:54:47.825Z,59.32
2017-10-02T00:57:29.843Z,59.31
2017-10-02T01:00:07.100Z,59.11
2017-10-02T01:02:42.827Z,58.82
2017-10-02T01:05:17.783Z,59.03
2017-10-02T01:08:03.118Z,58.86
2017-10-02T01:10:38.102Z,59.41
2017-10-02T01:13:21.312Z,59.75
2017-10-02T01:16:07.712Z,59.80
2017-10-02T01:18:48.902Z,59.63
2017-10-02T01:24:12.691Z,58.58
2017-10-02T01:26:49.732Z,58.24
2017-10-02T01:29:28.827Z,58.15
2017-10-02T01:32:03.743Z,58.08
2017-10-02T01:37:31.096Z,57.65
2017-10-02T01:40:06.035Z,57.65
2017-10-02T01:42:41.400Z,57.65
2017-10-02T01:48:15.949Z,57.26
2017-10-02T01:50:51.237Z,57.32
2017-10-02T01:56:10.356Z,56.61
2017-10-02T01:58:46.000Z,56.28
2017-10-02T02:01:20.896Z,56.15
2017-10-02T02:04:03.755Z,55.77
2017-10-02T02:06:39.026Z,55.61
2017-10-02T02:09:14.913Z,55.56
2017-10-02T02:11:52.077Z,55.04
2017-10-02T02:14:30.758Z,55.00
2017-10-02T02:17:12.307Z,55.04
2017-10-02T02:19:54.327Z,55.03
2017-10-02T02:22:35.076Z,55.00
2017-10-02T02:25:18.765Z,55.09
2017-10-02T02:27:53.794Z,54.95
2017-10-02T02:30:35.863Z,55.16
2017-10-02T02:33:10.938Z,55.32
2017-10-02T02:35:48.320Z,55.11
2017-10-02T02:38:22.998Z,55.16
2017-10-02T02:41:04.426Z,55.28
2017-10-02T02:43:39.839Z,55.36
2017-10-02T02:48:59.217Z,55.25
2017-10-02T02:51:45.435Z,55.10
2017-10-02T02:54:24.957Z,55.02
2017-10-02T02:57:08.567Z,54.96
2017-10-02T02:59:43.437Z,54.95
2017-10-02T03:02:21.607Z,54.97
2017-10-02T03:05:01.632Z,55.16
2017-10-02T03:07:36.754Z,55.59
2017-10-02T03:10:21.695Z,55.77
2017-10-02T03:13:04.382Z,56.36
2017-10-02T03:15:43.447Z,57.01
2017-10-02T03:18:18.094Z,57.36
2017-10-02T03:23:49.121Z,57.34
2017-10-02T03:26:26.209Z,57.21
2017-10-02T03:29:04.661Z,57.71
2017-10-02T03:31:39.325Z,57.64
2017-10-02T03:34:15.343Z,57.57
2017-10-02T03:36:50.948Z,57.63
2017-10-02T03:39:31.950Z,57.53
2017-10-02T03:42:19.388Z,57.60
2017-10-02T03:44:47.340Z,57.63
2017-10-02T03:47:21.897Z,57.54
2017-10-02T03:49:56.533Z,57.50
2017-10-02T03:52:32.990Z,57.54
2017-10-02T03:55:09.702Z,57.44
2017-10-02T03:57:46.842Z,57.45
2017-10-02T04:00:13.659Z,57.28
2017-10-02T04:02:48.712Z,57.20
2017-10-02T04:05:24.685Z,57.08
2017-10-02T04:07:51.443Z,57.08
2017-10-02T04:10:28.814Z,57.13
2017-10-02T04:13:03.631Z,56.85
2017-10-02T04:15:39.156Z,56.73
2017-10-02T04:18:18.416Z,56.75
2017-10-02T04:20:53.586Z,56.92
2017-10-02T04:23:29.001Z,56.81
2017-10-02T04:26:03.892Z,56.92
2017-10-02T04:28:38.738Z,56.93
2017-10-02T04:31:14.398Z,57.19
2017-10-02T04:39:29.721Z,57.23
2017-10-02T04:42:04.400Z,57.22
2017-10-02T04:44:39.159Z,57.47
2017-10-02T04:47:05.956Z,57.37
2017-10-02T04:49:42.766Z,57.25
2017-10-02T04:52:17.544Z,57.33
2017-10-02T04:54:53.555Z,56.65
2017-10-02T04:57:29.000Z,55.82
2017-10-02T04:59:57.279Z,55.68
2017-10-02T05:02:32.229Z,55.60
2017-10-02T05:05:07.681Z,55.61
2017-10-02T05:07:42.894Z,55.44
2017-10-02T05:10:23.675Z,55.49
2017-10-02T05:12:58.830Z,55.07
2017-10-02T05:15:33.641Z,54.90
2017-10-02T05:18:08.334Z,54.97
2017-10-02T05:20:43.404Z,54.81
2017-10-02T05:23:18.458Z,54.65
2017-10-02T05:25:55.283Z,54.40
2017-10-02T05:28:30.206Z,54.29
2017-10-02T05:31:05.682Z,54.01
2017-10-02T05:33:41.126Z,53.81
2017-10-02T05:36:15.857Z,53.66
2017-10-02T05:38:50.652Z,53.30
2017-10-02T05:41:26.141Z,52.73
2017-10-02T05:43:52.909Z,52.06
2017-10-02T05:46:27.499Z,51.19
2017-10-02T05:49:02.073Z,50.19
2017-10-02T05:51:36.775Z,49.53
2017-10-02T05:54:12.283Z,49.00
2017-10-02T05:56:48.048Z,48.45
2017-10-02T05:59:23.334Z,47.62
2017-10-02T06:02:00.309Z,46.81
2017-10-02T06:04:35.198Z,46.17
2017-10-02T06:07:10.567Z,44.11
2017-10-02T06:09:45.826Z,43.88
2017-10-02T06:12:25.034Z,42.68
2017-10-02T06:14:59.796Z,42.17
2017-10-02T06:17:35.274Z,41.90
2017-10-02T06:20:09.781Z,41.94
2017-10-02T06:22:45.071Z,42.16
2017-10-02T06:25:20.494Z,42.82
2017-10-02T06:27:56.978Z,43.45
2017-10-02T06:30:31.867Z,43.87
2017-10-02T06:33:06.553Z,44.80
2017-10-02T06:35:41.174Z,45.78
2017-10-02T06:38:16.711Z,46.55
2017-10-02T06:40:51.244Z,46.50
2017-10-02T06:43:26.668Z,46.79
2017-10-02T06:46:01.338Z,47.33
2017-10-02T06:48:35.919Z,47.44
2017-10-02T06:51:10.462Z,47.58
2017-10-02T06:53:45.913Z,47.88
2017-10-02T06:56:22.717Z,48.08
2017-10-02T06:58:57.467Z,47.81
2017-10-02T07:01:32.174Z,48.11
2017-10-02T07:04:08.656Z,47.48
2017-10-02T07:06:43.668Z,47.75
2017-10-02T07:09:19.782Z,47.69
2017-10-02T07:11:54.771Z,47.29
2017-10-02T07:14:31.224Z,47.38
2017-10-02T07:17:06.217Z,47.25
2017-10-02T07:19:43.175Z,47.56
2017-10-02T07:22:18.236Z,47.52
2017-10-02T07:24:52.811Z,47.69
2017-10-02T07:27:27.766Z,47.93
2017-10-02T07:30:02.587Z,47.64
2017-10-02T07:32:38.008Z,47.79
2017-10-02T07:35:12.934Z,46.88
2017-10-02T07:37:48.405Z,47.27
2017-10-02T07:40:27.370Z,47.15
2017-10-02T07:43:02.777Z,46.50
2017-10-02T07:45:31.412Z,46.22
2017-10-02T07:48:05.913Z,46.22
2017-10-02T07:50:40.524Z,45.43
2017-10-02T07:53:15.928Z,45.66
2017-10-02T07:55:53.999Z,44.71
2017-10-02T07:58:28.973Z,43.84
2017-10-02T08:01:06.397Z,43.67
2017-10-02T08:03:41.133Z,43.55
2017-10-02T08:06:16.498Z,41.21
2017-10-02T08:08:51.271Z,41.44
2017-10-02T08:11:27.556Z,41.23
2017-10-02T08:14:02.463Z,41.25
2017-10-02T08:16:38.937Z,40.71
2017-10-02T08:19:13.460Z,40.92
2017-10-02T08:21:50.077Z,42.49
2017-10-02T08:24:25.414Z,42.56
2017-10-02T08:27:03.837Z,42.94
2017-10-02T08:29:38.948Z,42.43
2017-10-02T08:32:13.712Z,43.00
2017-10-02T08:34:48.971Z,43.24
2017-10-02T08:37:23.671Z,42.65
2017-10-02T08:39:58.937Z,40.38
2017-10-02T08:42:35.958Z,41.98
2017-10-02T08:45:12.698Z,41.60
2017-10-02T08:47:49.127Z,41.68
2017-10-02T08:50:23.607Z,41.79
2017-10-02T08:53:01.660Z,40.89
2017-10-02T08:55:38.628Z,39.46
2017-10-02T08:58:14.092Z,40.35
2017-10-02T09:00:48.664Z,41.12
2017-10-02T09:03:29.845Z,41.53
2017-10-02T09:06:05.225Z,40.15
2017-10-02T09:08:41.490Z,42.73
2017-10-02T09:11:16.297Z,47.67
2017-10-02T09:13:54.969Z,47.64
2017-10-02T09:16:30.490Z,47.56
2017-10-02T09:19:05.940Z,43.83
2017-10-02T09:21:40.409Z,43.41
2017-10-02T09:24:15.119Z,42.82
2017-10-02T09:26:52.560Z,44.93
2017-10-02T09:29:28.354Z,45.63
2017-10-02T09:32:03.353Z,44.96
2017-10-02T09:34:39.677Z,49.74
2017-10-02T09:37:15.279Z,48.84
2017-10-02T09:39:51.620Z,44.68
2017-10-02T09:42:26.229Z,44.86
2017-10-02T09:47:59.473Z,47.18
2017-10-02T09:50:34.841Z,49.48
2017-10-02T09:53:09.891Z,51.52
2017-10-02T09:55:45.084Z,51.86
2017-10-02T09:58:19.924Z,51.47
2017-10-02T10:00:54.448Z,51.76
2017-10-02T10:03:36.237Z,52.94
2017-10-02T10:06:10.995Z,52.70
2017-10-02T10:08:47.446Z,52.96
2017-10-02T10:11:23.237Z,52.55
2017-10-02T10:13:57.846Z,52.11
2017-10-02T10:16:34.130Z,52.44
2017-10-02T10:19:08.817Z,52.86
2017-10-02T10:21:48.361Z,50.82
2017-10-02T10:24:30.781Z,51.71
2017-10-02T10:27:10.724Z,53.49
2017-10-02T10:29:45.571Z,52.32
2017-10-02T10:32:22.048Z,51.63
2017-10-02T10:34:58.589Z,52.78
2017-10-02T10:37:33.164Z,50.94
2017-10-02T10:40:07.857Z,51.59
2017-10-02T10:42:43.253Z,51.25
2017-10-02T10:45:19.436Z,50.18
2017-10-02T10:47:54.353Z,49.69
2017-10-02T10:50:31.279Z,49.83
2017-10-02T10:53:06.463Z,49.16
2017-10-02T10:55:42.233Z,49.24
2017-10-02T10:58:16.763Z,49.13
2017-10-02T11:00:51.616Z,50.13
2017-10-02T11:03:26.322Z,50.67
2017-10-02T11:06:04.262Z,51.01
2017-10-02T11:08:41.678Z,51.48
2017-10-02T11:11:16.613Z,51.21
2017-10-02T11:13:51.962Z,50.61
2017-10-02T11:16:27.334Z,50.31
2017-10-02T11:19:02.512Z,50.06
2017-10-02T11:21:39.122Z,51.21
2017-10-02T11:24:14.547Z,50.70
2017-10-02T11:26:50.082Z,51.06
2017-10-02T11:29:25.346Z,49.55
2017-10-02T11:32:00.976Z,50.69
2017-10-02T11:34:36.336Z,50.94
2017-10-02T11:37:11.001Z,51.69
2017-10-02T11:39:45.711Z,52.02
2017-10-02T11:42:20.357Z,52.46
2017-10-02T11:44:47.048Z,52.21
2017-10-02T11:47:24.252Z,52.77
2017-10-02T11:49:58.907Z,52.71
2017-10-02T11:52:35.398Z,52.09
2017-10-02T11:55:11.121Z,51.65
2017-10-02T11:57:47.965Z,50.75
2017-10-02T12:00:22.963Z,51.08
2017-10-02T12:02:59.396Z,51.35
2017-10-02T12:05:34.291Z,50.83
2017-10-02T12:08:11.935Z,51.16
2017-10-02T12:10:46.918Z,51.02
2017-10-02T12:13:24.266Z,52.17
2017-10-02T12:15:59.058Z,52.52
2017-10-02T12:18:37.500Z,51.88
2017-10-02T12:21:12.920Z,51.35
2017-10-02T12:23:48.488Z,49.98
2017-10-02T12:26:23.304Z,51.59
2017-10-02T12:28:58.533Z,51.35
2017-10-02T12:31:33.553Z,51.91
2017-10-02T12:34:09.221Z,50.56
2017-10-02T12:36:45.819Z,50.18
2017-10-02T12:39:21.677Z,48.78
2017-10-02T12:41:57.101Z,48.83
2017-10-02T12:44:31.997Z,48.81
2017-10-02T12:47:06.674Z,48.13
2017-10-02T12:49:42.505Z,47.49
2017-10-02T12:52:17.358Z,47.83
2017-10-02T12:54:53.444Z,47.91
2017-10-02T12:57:28.973Z,48.84
2017-10-02T13:00:04.753Z,49.56
2017-10-02T13:02:40.137Z,50.22
2017-10-02T13:05:17.899Z,50.09
2017-10-02T13:07:53.203Z,49.49
2017-10-02T13:10:29.120Z,50.00
2017-10-02T13:13:04.286Z,50.46
2017-10-02T13:15:40.128Z,50.78
2017-10-02T13:18:16.365Z,50.41
2017-10-02T13:20:51.298Z,50.75
2017-10-02T13:23:26.455Z,50.50
2017-10-02T13:26:01.044Z,50.28
2017-10-02T13:28:35.801Z,51.29
2017-10-02T13:31:10.592Z,51.50
2017-10-02T13:33:45.284Z,52.26
2017-10-02T13:36:20.206Z,51.87
2017-10-02T13:38:54.762Z,51.49
2017-10-02T13:41:30.602Z,52.04
2017-10-02T13:43:57.304Z,51.89
2017-10-02T13:46:32.718Z,53.14
2017-10-02T13:49:07.927Z,53.41
2017-10-02T13:51:43.274Z,53.63
2017-10-02T13:54:18.569Z,53.81
2017-10-02T13:56:56.403Z,54.44
2017-10-02T13:59:31.439Z,55.13
2017-10-02T14:02:06.036Z,55.47
2017-10-02T14:04:41.494Z,55.34
2017-10-02T14:07:16.961Z,55.36
2017-10-02T14:09:51.478Z,56.25
2017-10-02T14:12:27.113Z,55.96
2017-10-02T14:15:02.574Z,56.28
2017-10-02T14:17:38.965Z,56.13
2017-10-02T14:20:13.652Z,56.13
2017-10-02T14:22:49.479Z,55.90
2017-10-02T14:25:24.468Z,55.61
2017-10-02T14:27:59.933Z,55.46
2017-10-02T14:30:34.514Z,55.30
2017-10-02T14:33:10.827Z,54.36
2017-10-02T14:35:45.427Z,54.38
2017-10-02T14:38:21.146Z,54.61
2017-10-02T14:40:56.591Z,55.11
2017-10-02T14:43:32.956Z,55.60
2017-10-02T14:46:07.926Z,55.82
2017-10-02T14:48:43.567Z,55.94
2017-10-02T14:51:18.783Z,56.11
2017-10-02T14:53:53.453Z,56.28
2017-10-02T14:56:28.062Z,55.78
2017-10-02T14:59:05.482Z,56.59
2017-10-02T15:01:39.934Z,56.54
2017-10-02T15:04:14.544Z,55.99
2017-10-02T15:06:49.826Z,56.09
2017-10-02T15:09:26.391Z,56.16
2017-10-02T15:12:02.011Z,56.13
2017-10-02T15:14:46.021Z,55.98
2017-10-02T15:17:22.779Z,56.06
2017-10-02T15:19:58.789Z,56.05
2017-10-02T15:22:34.034Z,56.13
2017-10-02T15:25:10.323Z,55.83
2017-10-02T15:27:45.017Z,56.54
2017-10-02T15:30:20.578Z,56.81
2017-10-02T15:32:57.953Z,55.99
2017-10-02T15:35:34.259Z,55.52
2017-10-02T15:38:09.084Z,55.24
2017-10-02T15:40:44.566Z,55.58
2017-10-02T15:43:19.949Z,55.57
2017-10-02T15:45:46.759Z,55.33
2017-10-02T15:48:21.339Z,54.85
2017-10-02T15:50:56.553Z,54.93
2017-10-02T15:53:31.593Z,55.05
2017-10-02T15:56:06.147Z,55.73
2017-10-02T15:58:40.918Z,55.68
2017-10-02T16:01:16.883Z,55.83
2017-10-02T16:03:51.448Z,55.40
2017-10-02T16:06:26.339Z,55.81
2017-10-02T16:09:03.736Z,55.74
2017-10-02T16:11:38.531Z,55.70
2017-10-02T16:14:13.125Z,56.21
2017-10-02T16:16:50.917Z,56.72
2017-10-02T16:19:25.784Z,56.70
2017-10-02T16:22:02.146Z,56.40
2017-10-02T16:24:36.891Z,55.88
2017-10-02T16:27:13.250Z,55.88
2017-10-02T16:29:50.752Z,55.84
2017-10-02T16:32:26.499Z,55.71
2017-10-02T16:35:01.330Z,55.53
2017-10-02T16:37:35.925Z,55.52
2017-10-02T16:40:12.070Z,56.21
2017-10-02T16:42:50.424Z,56.87
2017-10-02T16:45:30.566Z,56.72
2017-10-02T16:48:06.023Z,57.00
2017-10-02T16:50:41.465Z,57.52
2017-10-02T16:53:16.785Z,57.52
2017-10-02T16:55:52.273Z,57.70
2017-10-02T16:58:27.659Z,57.57
2017-10-02T17:00:54.386Z,57.59
2017-10-02T17:03:21.134Z,57.21
2017-10-02T17:06:01.103Z,57.00
2017-10-02T17:08:36.564Z,56.75
2017-10-02T17:11:05.021Z,56.73
2017-10-02T17:13:31.862Z,57.14
2017-10-02T17:15:58.657Z,56.60
2017-10-02T17:18:34.117Z,56.59
2017-10-02T17:21:11.643Z,56.63
2017-10-02T17:23:46.700Z,56.94
2017-10-02T17:26:22.012Z,56.49
2017-10-02T17:29:00.945Z,56.70
2017-10-02T17:31:36.303Z,56.64
2017-10-02T17:34:15.164Z,56.56
2017-10-02T17:36:49.722Z,56.78
2017-10-02T17:39:30.581Z,56.67
2017-10-02T17:42:05.303Z,56.94
2017-10-02T17:44:32.182Z,57.36
2017-10-02T17:47:12.059Z,57.64
2017-10-02T17:49:47.507Z,57.44
2017-10-02T17:52:22.117Z,57.41
2017-10-02T17:54:57.721Z,57.62
2017-10-02T17:57:32.601Z,57.53
2017-10-02T18:00:08.115Z,57.57
2017-10-02T18:02:34.796Z,57.79
2017-10-02T18:05:11.054Z,57.86
2017-10-02T18:07:46.028Z,57.69
2017-10-02T18:10:22.136Z,57.39
2017-10-02T18:12:49.165Z,57.49
2017-10-02T18:15:27.172Z,57.77
2017-10-02T18:18:02.764Z,57.83
2017-10-02T18:20:39.366Z,58.05
2017-10-02T18:23:14.367Z,58.41
2017-10-02T18:25:49.384Z,58.09
2017-10-02T18:28:24.230Z,58.13
2017-10-02T18:30:59.431Z,58.12
2017-10-02T18:33:35.046Z,58.12
2017-10-02T18:36:12.547Z,58.23
2017-10-02T18:38:47.767Z,58.50
2017-10-02T18:41:25.246Z,58.61
2017-10-02T18:44:00.656Z,58.74
2017-10-02T18:46:37.532Z,58.54
2017-10-02T18:49:13.170Z,58.56
2017-10-02T18:51:51.525Z,58.66
2017-10-02T18:54:26.306Z,58.43
2017-10-02T18:57:02.170Z,58.19
2017-10-02T18:59:37.593Z,58.36
2017-10-02T19:02:14.360Z,58.82
2017-10-02T19:04:49.995Z,58.90
2017-10-02T19:09:42.018Z,59.61
2017-10-02T19:12:21.822Z,59.94
2017-10-02T19:14:57.706Z,60.17
2017-10-02T19:17:33.127Z,60.36
2017-10-02T19:20:09.424Z,60.37
2017-10-02T19:22:45.072Z,60.57
2017-10-02T19:25:23.272Z,60.92
2017-10-02T19:27:50.371Z,61.10
2017-10-02T19:30:25.488Z,60.99
2017-10-02T19:33:02.957Z,61.17
2017-10-02T19:35:30.664Z,61.06
2017-10-02T19:38:05.790Z,60.79
2017-10-02T19:40:45.794Z,60.96
2017-10-02T19:43:20.898Z,61.26
2017-10-02T19:45:48.080Z,61.44
2017-10-02T19:48:23.803Z,61.57
2017-10-02T19:50:59.112Z,61.58
2017-10-02T19:53:34.481Z,61.86
2017-10-02T19:56:10.089Z,62.21
2017-10-02T19:58:45.488Z,62.46
2017-10-02T20:01:22.808Z,62.67
2017-10-02T20:03:58.355Z,63.03
2017-10-02T20:06:37.049Z,63.30
2017-10-02T20:09:12.798Z,63.67
2017-10-02T20:11:48.010Z,64.13
2017-10-02T20:14:25.568Z,64.19
2017-10-02T20:17:01.203Z,64.42
2017-10-02T20:19:36.750Z,64.50
2017-10-02T20:22:12.185Z,64.49
2017-10-02T20:24:47.166Z,64.32
2017-10-02T20:27:23.552Z,64.25
2017-10-02T20:29:59.185Z,64.77
2017-10-02T20:32:34.672Z,64.82
2017-10-02T20:35:09.886Z,64.91
2017-10-02T20:37:45.522Z,65.03
2017-10-02T20:40:21.172Z,65.45
2017-10-02T20:42:57.479Z,65.57
2017-10-02T20:45:32.805Z,65.61
2017-10-02T20:48:09.094Z,65.75
2017-10-02T20:50:44.781Z,65.71
2017-10-02T20:53:20.348Z,65.61
2017-10-02T20:55:55.661Z,65.38
2017-10-02T20:58:31.292Z,65.44
2017-10-02T21:01:06.747Z,65.81
2017-10-02T21:03:45.931Z,66.08
2017-10-02T21:06:21.051Z,65.96
2017-10-02T21:08:59.653Z,65.95
2017-10-02T21:11:35.096Z,65.92
2017-10-02T21:14:10.456Z,66.02
2017-10-02T21:16:45.707Z,65.83
2017-10-02T21:19:22.519Z,65.55
2017-10-02T21:21:59.641Z,65.90
2017-10-02T21:24:38.535Z,66.00
2017-10-02T21:27:13.775Z,65.79
2017-10-02T21:29:50.207Z,65.72
2017-10-02T21:32:25.856Z,65.77
2017-10-02T21:35:02.241Z,65.80
2017-10-02T21:37:39.245Z,65.66
2017-10-02T21:40:15.123Z,65.68
2017-10-02T21:42:50.588Z,65.74
2017-10-02T21:48:31.971Z,65.13
2017-10-02T21:51:12.578Z,64.80
2017-10-02T21:53:50.999Z,64.91
2017-10-02T21:56:26.088Z,64.61
2017-10-02T21:59:02.312Z,64.45
2017-10-02T22:01:38.022Z,64.56
2017-10-02T22:04:13.419Z,63.95
2017-10-02T22:06:48.708Z,64.25
2017-10-02T22:09:25.807Z,64.00
2017-10-02T22:12:01.142Z,63.85
2017-10-02T22:14:37.129Z,63.38
2017-10-02T22:17:11.916Z,63.29
2017-10-02T22:19:47.928Z,62.92
2017-10-02T22:22:23.627Z,62.91
2017-10-02T22:24:59.833Z,62.84
2017-10-02T22:27:35.447Z,62.80
2017-10-02T22:30:11.265Z,62.74
2017-10-02T22:32:46.843Z,63.62
2017-10-02T22:35:22.842Z,64.11
2017-10-02T22:37:58.321Z,64.27
2017-10-02T22:40:34.331Z,64.51
2017-10-02T22:43:09.961Z,64.78
2017-10-02T22:45:45.610Z,65.31
2017-10-02T22:48:20.942Z,65.48
2017-10-02T22:50:58.277Z,66.01
2017-10-02T22:53:34.089Z,66.50
2017-10-02T22:56:10.196Z,66.43
2017-10-02T22:58:45.790Z,66.60
2017-10-02T23:01:22.406Z,66.51
2017-10-02T23:03:57.928Z,66.52
2017-10-02T23:06:34.206Z,66.54
2017-10-02T23:09:10.369Z,66.36
2017-10-02T23:11:46.148Z,66.55
2017-10-02T23:14:21.623Z,66.76
2017-10-02T23:16:57.394Z,67.00
2017-10-02T23:19:32.758Z,67.14
2017-10-02T23:22:08.240Z,67.54
2017-10-02T23:24:44.033Z,67.56
2017-10-02T23:27:13.109Z,67.65
2017-10-02T23:29:48.142Z,67.92
2017-10-02T23:32:25.529Z,67.85
2017-10-02T23:35:00.714Z,68.00
2017-10-02T23:37:38.729Z,68.03
2017-10-02T23:40:13.737Z,67.97
2017-10-02T23:42:52.351Z,68.16
2017-10-02T23:45:19.383Z,68.04
2017-10-02T23:47:56.544Z,68.19
2017-10-02T23:50:31.645Z,68.39
2017-10-02T23:53:07.029Z,68.48
2017-10-02T23:55:42.530Z,68.47
2017-10-02T23:58:18.079Z,68.47
